Time;durP1;ratioP1;P1;durP2;ratioP2;P2;SDS_P1;SDS_P2;PMS_P1;PMS_P2;Temp;Humidity;BMP_temperature;BMP_pressure;BME280_temperature;BME280_humidity;BME280_pressure;Samples;Min_cycle;Max_cycle;Signal;HPM_P1;HPM_P2
2023/12/21 00:01:54;;;;;;;28.63;4.80;;;7.70;95.20;;;;;;5023415;28;20496;-57
2023/12/21 00:04:19;;;;;;;40.95;4.97;;;7.70;95.20;;;;;;5022164;28;20113;-57
2023/12/21 00:06:45;;;;;;;33.10;4.97;;;7.70;95.10;;;;;;5021902;28;20022;-57
2023/12/21 00:09:11;;;;;;;27.00;4.82;;;7.70;95.10;;;;;;5022193;28;20037;-57
2023/12/21 00:11:37;;;;;;;26.80;4.93;;;7.70;95.10;;;;;;5022039;28;20037;-57
2023/12/21 00:14:02;;;;;;;27.17;4.88;;;7.70;95.10;;;;;;5021897;28;20117;-57
2023/12/21 00:16:28;;;;;;;26.60;5.13;;;7.60;95.20;;;;;;5024897;28;20038;-57
2023/12/21 00:18:54;;;;;;;27.92;5.80;;;7.60;95.20;;;;;;5025569;28;20105;-57
2023/12/21 00:21:20;;;;;;;27.67;4.90;;;7.60;95.30;;;;;;5025578;28;20472;-57
2023/12/21 00:23:45;;;;;;;26.85;4.15;;;7.60;95.20;;;;;;5025459;28;20030;-57
2023/12/21 00:26:11;;;;;;;31.00;4.13;;;7.60;95.20;;;;;;5025496;28;20052;-57
2023/12/21 00:28:36;;;;;;;23.17;4.63;;;7.60;95.30;;;;;;5025389;28;20045;-57
2023/12/21 00:31:02;;;;;;;23.00;4.35;;;7.60;95.30;;;;;;5008961;28;20038;-57
2023/12/21 00:33:28;;;;;;;27.27;4.15;;;7.60;95.30;;;;;;5026720;28;20049;-59
2023/12/21 00:35:54;;;;;;;28.13;5.35;;;7.60;95.30;;;;;;5026528;28;20058;-57
2023/12/21 00:38:19;;;;;;;16.70;3.72;;;7.60;95.30;;;;;;5025280;28;20087;-57
2023/12/21 00:40:45;;;;;;;23.52;4.35;;;7.50;95.20;;;;;;5008833;28;20030;-57
2023/12/21 00:43:11;;;;;;;20.48;4.15;;;7.60;95.30;;;;;;5025264;28;20034;-57
2023/12/21 00:45:36;;;;;;;14.85;3.17;;;7.50;95.50;;;;;;5026283;28;20029;-57
2023/12/21 00:48:02;;;;;;;18.35;3.22;;;7.50;95.20;;;;;;5026285;28;20034;-57
2023/12/21 00:50:27;;;;;;;17.27;3.70;;;7.50;95.30;;;;;;5008671;28;20383;-57
2023/12/21 00:52:53;;;;;;;12.52;3.03;;;7.50;95.20;;;;;;5024855;28;20030;-57
2023/12/21 00:55:19;;;;;;;19.88;3.15;;;7.50;95.30;;;;;;5026286;28;20075;-57
2023/12/21 00:57:44;;;;;;;16.75;3.15;;;7.50;95.40;;;;;;5025976;28;20087;-57
2023/12/21 01:00:10;;;;;;;12.40;3.20;;;7.50;95.40;;;;;;5024823;28;20026;-58
2023/12/21 01:02:38;;;;;;;13.93;3.05;;;7.50;95.40;;;;;;5024746;28;20029;-56
2023/12/21 01:05:04;;;;;;;14.98;2.85;;;7.50;95.50;;;;;;5024999;28;20018;-57
2023/12/21 01:07:30;;;;;;;17.50;2.80;;;7.50;95.40;;;;;;5025858;28;20091;-57
2023/12/21 01:09:56;;;;;;;8.60;2.40;;;7.50;95.50;;;;;;5024714;28;20029;-57
2023/12/21 01:12:21;;;;;;;10.68;2.88;;;7.50;95.50;;;;;;5024567;28;20030;-56
2023/12/21 01:14:47;;;;;;;17.30;2.95;;;7.50;95.50;;;;;;5025978;28;20030;-56
2023/12/21 01:17:12;;;;;;;11.30;2.38;;;7.50;95.60;;;;;;5008586;28;20056;-57
2023/12/21 01:19:38;;;;;;;7.47;2.03;;;7.50;95.50;;;;;;5025641;28;20033;-57
2023/12/21 01:22:03;;;;;;;10.55;2.97;;;7.50;95.50;;;;;;5024740;28;20398;-57
2023/12/21 01:24:29;;;;;;;13.30;3.67;;;7.50;95.60;;;;;;5008404;28;20167;-57
2023/12/21 01:26:55;;;;;;;12.98;3.10;;;7.50;95.60;;;;;;5025086;28;20478;-57
2023/12/21 01:29:20;;;;;;;20.25;3.08;;;7.50;95.60;;;;;;5025229;28;20101;-56
2023/12/21 01:31:46;;;;;;;13.80;3.17;;;7.50;95.60;;;;;;5024549;28;20432;-57
2023/12/21 01:34:12;;;;;;;12.52;2.13;;;7.50;95.60;;;;;;5024495;28;20034;-57
2023/12/21 01:36:38;;;;;;;10.00;2.25;;;7.50;95.50;;;;;;5024418;28;20101;-57
2023/12/21 01:39:03;;;;;;;11.77;2.42;;;7.50;95.50;;;;;;5024304;28;20041;-57
2023/12/21 01:41:29;;;;;;;11.80;3.08;;;7.50;95.50;;;;;;5025615;28;20458;-57
2023/12/21 01:43:55;;;;;;;10.45;2.60;;;7.50;95.50;;;;;;5024194;28;20095;-57
2023/12/21 01:46:23;;;;;;;12.70;2.75;;;7.50;95.60;;;;;;5007770;28;20029;-57
2023/12/21 01:48:48;;;;;;;7.60;2.55;;;7.50;95.60;;;;;;5024284;28;20053;-57
2023/12/21 01:51:14;;;;;;;7.85;2.45;;;7.50;95.60;;;;;;5007833;28;20037;-57
2023/12/21 01:53:40;;;;;;;9.88;2.22;;;7.50;95.70;;;;;;5025358;28;20113;-57
2023/12/21 01:56:06;;;;;;;9.15;2.25;;;7.50;95.70;;;;;;5024081;28;20030;-57
2023/12/21 01:58:31;;;;;;;16.35;2.30;;;7.50;95.70;;;;;;5007427;28;20030;-56
2023/12/21 02:00:57;;;;;;;9.30;1.92;;;7.40;95.70;;;;;;5025451;28;20071;-57
2023/12/21 02:03:26;;;;;;;10.57;2.10;;;7.40;95.80;;;;;;5023932;28;20026;-57
2023/12/21 02:05:52;;;;;;;11.10;2.22;;;7.40;95.70;;;;;;5024005;28;20026;-57
2023/12/21 02:08:17;;;;;;;11.68;2.40;;;7.40;95.80;;;;;;5026237;28;20045;-57
2023/12/21 02:10:43;;;;;;;6.63;2.10;;;7.40;95.80;;;;;;5008487;28;20055;-57
2023/12/21 02:13:09;;;;;;;9.65;1.95;;;7.40;95.80;;;;;;5025439;28;20045;-58
2023/12/21 02:15:34;;;;;;;5.45;1.65;;;7.40;95.80;;;;;;5025025;28;20033;-57
2023/12/21 02:18:02;;;;;;;6.82;2.00;;;7.40;95.90;;;;;;5023382;28;20063;-57
2023/12/21 02:20:28;;;;;;;4.15;1.63;;;7.50;96.00;;;;;;5025012;28;20109;-57
2023/12/21 02:22:54;;;;;;;7.28;2.00;;;7.40;96.00;;;;;;5023617;28;20042;-57
2023/12/21 02:25:19;;;;;;;3.47;1.58;;;7.40;96.10;;;;;;5007350;28;20073;-57
2023/12/21 02:27:49;;;;;;;6.95;1.85;;;7.40;96.00;;;;;;5007240;28;20037;-57
2023/12/21 02:30:15;;;;;;;9.02;2.03;;;7.40;96.10;;;;;;5023453;28;20041;-57
2023/12/21 02:32:40;;;;;;;7.28;1.95;;;7.40;96.10;;;;;;5024658;28;20473;-57
2023/12/21 02:35:06;;;;;;;6.78;2.00;;;7.40;96.10;;;;;;5007255;28;20030;-57
2023/12/21 02:37:31;;;;;;;4.63;1.60;;;7.40;96.20;;;;;;5007014;28;20417;-57
2023/12/21 02:39:57;;;;;;;10.10;2.00;;;7.40;96.20;;;;;;5006668;28;20029;-57
2023/12/21 02:42:23;;;;;;;6.72;1.88;;;7.40;96.20;;;;;;5024483;28;20063;-58
2023/12/21 02:44:48;;;;;;;8.05;1.83;;;7.40;96.20;;;;;;5023328;28;20036;-58
2023/12/21 02:47:14;;;;;;;7.45;1.80;;;7.40;96.20;;;;;;4990668;28;20022;-57
2023/12/21 02:49:39;;;;;;;9.38;1.95;;;7.40;96.30;;;;;;5007016;28;20434;-57
2023/12/21 02:52:05;;;;;;;6.97;1.77;;;7.40;96.30;;;;;;5024486;28;20044;-57
2023/12/21 02:54:31;;;;;;;5.97;1.75;;;7.40;96.30;;;;;;5006921;28;20026;-57
2023/12/21 02:56:57;;;;;;;5.00;1.90;;;7.40;96.30;;;;;;5022989;28;20029;-57
2023/12/21 02:59:22;;;;;;;4.85;1.65;;;7.40;96.30;;;;;;5023070;28;20030;-57
2023/12/21 03:01:48;;;;;;;5.57;1.67;;;7.40;96.30;;;;;;5024180;28;20462;-57
2023/12/21 03:04:14;;;;;;;5.65;1.60;;;7.40;96.40;;;;;;5024247;28;20034;-57
2023/12/21 03:06:39;;;;;;;7.22;2.15;;;7.40;96.40;;;;;;5024247;28;20026;-57
2023/12/21 03:09:05;;;;;;;3.55;1.60;;;7.40;96.40;;;;;;5024278;28;20044;-57
2023/12/21 03:11:31;;;;;;;6.93;1.70;;;7.30;96.40;;;;;;5007024;28;20086;-57
2023/12/21 03:13:56;;;;;;;4.95;1.75;;;7.40;96.50;;;;;;5022998;28;20040;-57
2023/12/21 03:16:22;;;;;;;5.18;1.83;;;7.40;96.50;;;;;;4990105;28;20030;-57
2023/12/21 03:18:47;;;;;;;8.90;1.90;;;7.40;96.60;;;;;;5006323;28;20042;-57
2023/12/21 03:21:16;;;;;;;16.23;1.83;;;7.30;96.80;;;;;;5022730;28;20029;-57
2023/12/21 03:23:41;;;;;;;7.13;1.63;;;7.40;96.60;;;;;;5024085;28;20045;-56
2023/12/21 03:26:08;;;;;;;5.38;1.60;;;7.40;96.60;;;;;;5024695;28;20022;-57
2023/12/21 03:28:34;;;;;;;3.38;1.92;;;7.40;96.70;;;;;;5022663;28;20545;-57
2023/12/21 03:31:00;;;;;;;8.35;1.52;;;7.40;96.70;;;;;;5023683;28;20040;-57
2023/12/21 03:33:26;;;;;;;4.95;1.60;;;7.40;96.70;;;;;;5006318;28;20090;-57
2023/12/21 03:35:51;;;;;;;2.60;1.42;;;7.40;96.70;;;;;;5023677;28;20539;-57
2023/12/21 03:38:17;;;;;;;4.50;1.60;;;7.40;96.70;;;;;;5023739;28;20030;-57
2023/12/21 03:40:43;;;;;;;5.55;1.40;;;7.40;96.70;;;;;;5022505;28;20095;-57
2023/12/21 03:43:08;;;;;;;3.03;1.30;;;7.40;96.70;;;;;;5023701;28;20039;-57
2023/12/21 03:45:39;;;;;;;3.33;1.40;;;7.40;96.70;;;;;;5022174;28;20026;-57
2023/12/21 03:48:09;;;;;;;6.75;1.67;;;7.40;96.70;;;;;;5022597;28;20112;-57
2023/12/21 03:50:35;;;;;;;5.05;1.48;;;7.40;96.70;;;;;;5022635;28;20061;-57
2023/12/21 03:53:01;;;;;;;6.28;1.50;;;7.40;96.70;;;;;;5023542;28;20037;-57
2023/12/21 03:55:26;;;;;;;3.25;1.55;;;7.40;96.70;;;;;;5023472;28;20066;-57
2023/12/21 03:57:52;;;;;;;2.83;1.45;;;7.40;96.70;;;;;;5023350;28;20109;-57
2023/12/21 04:00:18;;;;;;;5.07;2.20;;;7.40;96.80;;;;;;5023386;28;20040;-57
2023/12/21 04:02:45;;;;;;;4.53;1.50;;;7.40;96.70;;;;;;5023291;28;20436;-57
2023/12/21 04:05:11;;;;;;;3.13;1.70;;;7.40;96.70;;;;;;5006803;28;20026;-57
2023/12/21 04:07:36;;;;;;;6.75;1.70;;;7.40;96.70;;;;;;5022300;28;20038;-57
2023/12/21 04:10:02;;;;;;;5.28;1.80;;;7.40;96.70;;;;;;5022354;28;20087;-57
2023/12/21 04:12:27;;;;;;;4.45;1.65;;;7.40;96.70;;;;;;5023343;28;20037;-57
2023/12/21 04:14:53;;;;;;;3.17;1.55;;;7.40;96.70;;;;;;5023441;28;20030;-57
2023/12/21 04:17:19;;;;;;;2.58;1.30;;;7.40;96.80;;;;;;5023260;28;20022;-56
2023/12/21 04:19:44;;;;;;;5.50;1.70;;;7.40;96.80;;;;;;5023218;28;20026;-57
2023/12/21 04:22:10;;;;;;;3.28;1.40;;;7.40;96.80;;;;;;5023314;28;20054;-58
2023/12/21 04:24:36;;;;;;;3.72;1.52;;;7.40;96.80;;;;;;5023400;28;20033;-57
2023/12/21 04:27:01;;;;;;;2.03;1.20;;;7.40;96.80;;;;;;5023281;28;20030;-58
2023/12/21 04:29:27;;;;;;;4.00;1.60;;;7.40;96.90;;;;;;5021694;28;20034;-57
2023/12/21 04:31:52;;;;;;;3.03;1.40;;;7.40;96.80;;;;;;5021924;28;20030;-57
2023/12/21 04:34:18;;;;;;;3.17;1.73;;;7.40;96.80;;;;;;5021995;28;20038;-57
2023/12/21 04:36:44;;;;;;;4.57;2.17;;;7.40;96.80;;;;;;5021864;28;20124;-57
2023/12/21 04:39:09;;;;;;;3.78;2.08;;;7.40;96.80;;;;;;5023074;28;20038;-57
2023/12/21 04:41:35;;;;;;;2.95;2.08;;;7.50;96.90;;;;;;5021659;28;20061;-57
2023/12/21 04:44:00;;;;;;;6.40;2.08;;;7.40;96.80;;;;;;5021747;28;20030;-57
2023/12/21 04:46:26;;;;;;;5.25;2.20;;;7.50;96.90;;;;;;5022883;28;20022;-57
2023/12/21 04:48:52;;;;;;;2.88;1.55;;;7.50;96.80;;;;;;5023081;28;20045;-57
2023/12/21 04:51:17;;;;;;;6.28;1.83;;;7.40;96.80;;;;;;5022751;28;20026;-57
2023/12/21 04:53:43;;;;;;;2.83;1.90;;;7.40;96.80;;;;;;5021549;28;20093;-57
2023/12/21 04:56:09;;;;;;;6.03;1.95;;;7.50;96.80;;;;;;5021603;28;20030;-57
2023/12/21 04:58:35;;;;;;;3.60;2.00;;;7.50;96.80;;;;;;5021441;28;20451;-57
2023/12/21 05:01:01;;;;;;;4.18;1.98;;;7.40;96.80;;;;;;5022758;28;20026;-57
2023/12/21 05:03:26;;;;;;;2.53;1.58;;;7.50;96.80;;;;;;5024749;28;20031;-57
2023/12/21 05:05:52;;;;;;;3.83;1.63;;;7.40;96.70;;;;;;5026017;28;20056;-59
2023/12/21 05:08:18;;;;;;;7.43;1.73;;;7.50;96.80;;;;;;5024700;28;20066;-59
2023/12/21 05:10:43;;;;;;;3.80;1.67;;;7.40;96.80;;;;;;5025913;28;20050;-59
2023/12/21 05:13:09;;;;;;;3.80;1.75;;;7.50;97.00;;;;;;5026007;28;20034;-59
2023/12/21 05:15:35;;;;;;;3.88;1.60;;;7.50;97.30;;;;;;5026122;28;20108;-59
2023/12/21 05:18:00;;;;;;;7.10;2.00;;;7.50;97.40;;;;;;5025807;28;20034;-59
2023/12/21 05:20:26;;;;;;;3.90;1.40;;;7.50;97.50;;;;;;5025802;28;20029;-59
2023/12/21 05:22:51;;;;;;;4.97;1.55;;;7.50;97.50;;;;;;5024662;28;20045;-59
2023/12/21 05:25:17;;;;;;;5.50;1.55;;;7.50;97.40;;;;;;5024806;28;20026;-59
2023/12/21 05:27:43;;;;;;;4.28;2.00;;;7.50;97.40;;;;;;5008327;28;20041;-59
2023/12/21 05:30:11;;;;;;;4.28;2.20;;;7.50;97.50;;;;;;5024479;28;20041;-57
2023/12/21 05:32:36;;;;;;;4.30;1.73;;;7.50;97.20;;;;;;5085869;28;20046;-59
2023/12/21 05:35:03;;;;;;;4.85;1.98;;;7.60;97.20;;;;;;5107777;28;20044;-59
2023/12/21 05:37:29;;;;;;;3.53;1.80;;;7.50;97.10;;;;;;5108717;28;20028;-59
2023/12/21 05:39:54;;;;;;;3.67;1.80;;;7.50;97.10;;;;;;5107805;28;20020;-60
2023/12/21 05:42:20;;;;;;;2.50;1.33;;;7.50;97.00;;;;;;5108174;28;20031;-58
2023/12/21 05:44:46;;;;;;;3.22;1.67;;;7.50;97.00;;;;;;5109321;28;20024;-59
2023/12/21 05:47:11;;;;;;;2.17;1.65;;;7.50;97.00;;;;;;5107504;28;20027;-59
2023/12/21 05:49:37;;;;;;;2.90;1.15;;;7.50;97.00;;;;;;5107267;28;20035;-59
2023/12/21 05:52:03;;;;;;;2.42;1.17;;;7.50;97.00;;;;;;5108667;28;20456;-59
2023/12/21 05:54:30;;;;;;;3.85;1.20;;;7.50;96.90;;;;;;5108680;28;20115;-59
2023/12/21 05:56:56;;;;;;;2.60;1.30;;;7.50;96.90;;;;;;5108571;28;20024;-59
2023/12/21 05:59:22;;;;;;;2.17;1.10;;;7.50;96.90;;;;;;5108500;28;20062;-59
2023/12/21 06:01:48;;;;;;;3.25;1.35;;;7.50;96.80;;;;;;5108296;28;20021;-59
2023/12/21 06:04:14;;;;;;;2.45;1.35;;;7.50;96.80;;;;;;5090224;28;20494;-59
2023/12/21 06:06:40;;;;;;;3.25;1.25;;;7.50;96.70;;;;;;5108372;28;20047;-59
2023/12/21 06:09:05;;;;;;;3.20;1.15;;;7.50;96.70;;;;;;5090179;28;20122;-59
2023/12/21 06:11:31;;;;;;;3.35;1.25;;;7.50;96.70;;;;;;5062485;28;20064;-59
2023/12/21 06:13:56;;;;;;;2.33;1.08;;;7.50;96.70;;;;;;5003252;28;20043;-59
2023/12/21 06:16:22;;;;;;;2.88;1.23;;;7.50;96.70;;;;;;5007038;28;20045;-59
2023/12/21 06:18:49;;;;;;;3.35;1.25;;;7.50;96.60;;;;;;5015404;28;20133;-59
2023/12/21 06:21:14;;;;;;;10.02;1.70;;;7.50;96.60;;;;;;5011120;28;20018;-59
2023/12/21 06:23:40;;;;;;;15.38;2.10;;;7.50;96.60;;;;;;5004949;28;20037;-59
2023/12/21 06:26:05;;;;;;;15.38;2.40;;;7.50;96.60;;;;;;5010889;28;20026;-59
2023/12/21 06:28:31;;;;;;;11.77;2.30;;;7.50;96.60;;;;;;5021527;28;20030;-59
2023/12/21 06:30:56;;;;;;;24.10;2.92;;;7.50;96.60;;;;;;5014913;28;20402;-59
2023/12/21 06:33:22;;;;;;;17.73;3.13;;;7.50;96.60;;;;;;5005148;28;20044;-59
2023/12/21 06:35:48;;;;;;;15.10;2.45;;;7.50;96.90;;;;;;5015552;28;20626;-57
2023/12/21 06:38:13;;;;;;;15.52;2.58;;;7.50;96.60;;;;;;5018344;28;20073;-58
2023/12/21 06:40:39;;;;;;;16.50;2.75;;;7.60;96.60;;;;;;5017757;28;20105;-57
2023/12/21 06:43:05;;;;;;;25.83;3.88;;;7.50;96.60;;;;;;5004528;28;20044;-57
2023/12/21 06:45:30;;;;;;;20.20;3.60;;;7.50;96.60;;;;;;5003905;28;20034;-56
2023/12/21 06:47:59;;;;;;;21.13;3.50;;;7.50;96.60;;;;;;5004710;28;20045;-57
2023/12/21 06:50:25;;;;;;;34.90;5.63;;;7.60;96.70;;;;;;5007321;28;20173;-57
2023/12/21 06:52:51;;;;;;;49.65;5.07;;;7.50;96.70;;;;;;5094130;28;20036;-58
2023/12/21 06:55:16;;;;;;;28.95;3.90;;;7.60;96.60;;;;;;5027290;28;20083;-59
2023/12/21 06:57:42;;;;;;;34.13;4.53;;;7.60;96.60;;;;;;4969511;28;20038;-58
2023/12/21 07:00:08;;;;;;;30.40;3.83;;;7.60;96.60;;;;;;5001443;28;20026;-59
2023/12/21 07:02:33;;;;;;;23.50;3.15;;;7.60;96.60;;;;;;4985465;28;20023;-58
2023/12/21 07:04:59;;;;;;;18.27;2.95;;;7.50;96.60;;;;;;5000678;28;20029;-58
2023/12/21 07:07:25;;;;;;;23.60;3.72;;;7.60;96.60;;;;;;5009391;28;20050;-58
2023/12/21 07:09:50;;;;;;;33.67;3.65;;;7.50;96.60;;;;;;4985687;28;20027;-58
2023/12/21 07:12:17;;;;;;;17.38;3.35;;;7.60;96.60;;;;;;5002282;28;20021;-59
2023/12/21 07:14:42;;;;;;;20.83;3.75;;;7.60;96.70;;;;;;4999914;28;20086;-59
2023/12/21 07:17:08;;;;;;;23.60;3.80;;;7.50;96.70;;;;;;5009798;28;20057;-58
2023/12/21 07:19:37;;;;;;;28.73;4.63;;;7.60;96.70;;;;;;4988272;28;20030;-58
2023/12/21 07:22:04;;;;;;;35.67;4.75;;;7.50;96.70;;;;;;4985312;28;20037;-58
2023/12/21 07:24:30;;;;;;;36.45;4.82;;;7.60;96.80;;;;;;5000943;28;20046;-58
2023/12/21 07:26:56;;;;;;;36.83;5.47;;;7.60;96.80;;;;;;4995871;28;20026;-59
2023/12/21 07:29:22;;;;;;;28.23;4.47;;;7.60;96.80;;;;;;5011470;28;20087;-58
2023/12/21 07:31:47;;;;;;;29.55;5.15;;;7.60;96.80;;;;;;5001936;28;20061;-58
2023/12/21 07:34:13;;;;;;;19.33;3.72;;;7.60;96.80;;;;;;5002250;28;20026;-59
2023/12/21 07:36:39;;;;;;;19.50;3.83;;;7.60;96.90;;;;;;5003819;28;20034;-58
2023/12/21 07:39:04;;;;;;;17.52;3.88;;;7.60;96.90;;;;;;5003069;28;20406;-59
2023/12/21 07:41:30;;;;;;;27.05;3.90;;;7.60;96.90;;;;;;5000532;28;20056;-58
2023/12/21 07:43:57;;;;;;;33.72;4.10;;;7.60;96.80;;;;;;5000812;28;20076;-58
2023/12/21 07:46:23;;;;;;;25.73;3.75;;;7.60;96.80;;;;;;5016067;28;20029;-58
2023/12/21 07:48:49;;;;;;;17.75;4.10;;;7.60;96.80;;;;;;5000496;28;20034;-58
2023/12/21 07:51:15;;;;;;;21.08;3.63;;;7.70;96.80;;;;;;5001914;28;20414;-58
2023/12/21 07:53:41;;;;;;;14.77;3.40;;;7.70;96.80;;;;;;5003621;28;20089;-58
2023/12/21 07:56:06;;;;;;;20.65;3.17;;;7.70;96.80;;;;;;4981431;28;20031;-58
2023/12/21 07:58:32;;;;;;;13.52;2.67;;;7.70;96.80;;;;;;4995832;28;20034;-59
2023/12/21 08:00:58;;;;;;;17.55;2.97;;;7.70;96.70;;;;;;4995595;28;20056;-58
2023/12/21 08:03:23;;;;;;;25.20;3.47;;;7.70;96.80;;;;;;4995804;28;20069;-59
2023/12/21 08:05:49;;;;;;;34.67;4.10;;;7.70;96.90;;;;;;4998014;28;20019;-58
2023/12/21 08:08:14;;;;;;;171.20;14.18;;;7.70;96.90;;;;;;5002545;28;20418;-58
2023/12/21 08:10:40;;;;;;;61.05;5.72;;;7.70;97.10;;;;;;5014404;28;20026;-58
2023/12/21 08:13:08;;;;;;;53.60;6.30;;;7.80;97.20;;;;;;5001275;28;20041;-58
2023/12/21 08:15:33;;;;;;;50.53;5.03;;;7.80;97.20;;;;;;5002616;28;20042;-58
2023/12/21 08:17:59;;;;;;;63.53;6.35;;;7.80;97.30;;;;;;5001669;28;20470;-58
2023/12/21 08:20:25;;;;;;;80.47;6.30;;;7.80;97.40;;;;;;4988291;28;20052;-58
2023/12/21 08:22:50;;;;;;;79.25;8.80;;;7.90;97.40;;;;;;5001798;28;20053;-58
2023/12/21 08:25:16;;;;;;;42.20;5.57;;;7.90;97.40;;;;;;5001781;28;20026;-58
2023/12/21 08:27:42;;;;;;;52.35;6.53;;;7.90;97.40;;;;;;5006877;28;20031;-58
2023/12/21 08:30:09;;;;;;;51.03;7.25;;;7.90;97.40;;;;;;5001902;28;20529;-58
2023/12/21 08:32:35;;;;;;;85.50;6.70;;;7.90;97.40;;;;;;4997373;28;20026;-58
2023/12/21 08:35:00;;;;;;;71.50;7.55;;;7.90;97.40;;;;;;5014120;28;20040;-58
2023/12/21 08:37:26;;;;;;;72.75;7.57;;;7.90;97.60;;;;;;5001389;28;20027;-58
2023/12/21 08:39:52;;;;;;;67.60;7.32;;;8.00;97.50;;;;;;5005267;28;20519;-58
2023/12/21 08:42:17;;;;;;;50.38;6.97;;;8.00;97.50;;;;;;5013793;28;20025;-57
2023/12/21 08:44:43;;;;;;;59.67;8.50;;;8.00;97.40;;;;;;5007292;28;20050;-59
2023/12/21 08:47:08;;;;;;;70.43;7.10;;;8.10;97.40;;;;;;4990600;28;20042;-58
2023/12/21 08:49:34;;;;;;;67.97;8.00;;;8.00;97.30;;;;;;5005937;28;20475;-58
2023/12/21 08:52:00;;;;;;;59.65;7.88;;;8.10;97.30;;;;;;5001131;28;20033;-58
2023/12/21 08:54:25;;;;;;;57.63;6.95;;;8.10;97.30;;;;;;4985853;28;20065;-58
2023/12/21 08:56:51;;;;;;;76.18;6.95;;;8.10;97.30;;;;;;4994665;28;20105;-58
2023/12/21 08:59:17;;;;;;;46.55;6.78;;;8.10;97.30;;;;;;5012572;28;20463;-58
2023/12/21 09:01:43;;;;;;;73.97;8.48;;;8.10;97.40;;;;;;4998835;28;20034;-58
2023/12/21 09:04:09;;;;;;;123.07;13.75;;;8.10;97.30;;;;;;4988576;28;20031;-58
2023/12/21 09:06:34;;;;;;;78.38;8.70;;;8.10;97.20;;;;;;5010702;28;20462;-58
2023/12/21 09:09:01;;;;;;;60.08;8.35;;;8.10;97.20;;;;;;5015158;28;20109;-58
2023/12/21 09:11:27;;;;;;;62.92;8.82;;;8.10;97.10;;;;;;4983657;28;20105;-58
2023/12/21 09:13:55;;;;;;;60.75;7.75;;;8.10;97.20;;;;;;5010276;28;20027;-58
2023/12/21 09:16:21;;;;;;;75.82;7.50;;;8.10;97.20;;;;;;5002019;28;20026;-59
2023/12/21 09:18:47;;;;;;;60.55;7.95;;;8.20;97.30;;;;;;5006918;28;20035;-59
2023/12/21 09:21:12;;;;;;;90.57;10.82;;;8.10;97.30;;;;;;5004833;28;20474;-58
2023/12/21 09:23:39;;;;;;;84.15;11.27;;;8.10;97.40;;;;;;5003474;28;20030;-59
2023/12/21 09:26:08;;;;;;;69.55;10.20;;;8.10;97.60;;;;;;5003736;28;20028;-58
2023/12/21 09:28:37;;;;;;;76.25;7.22;;;8.10;97.80;;;;;;5003922;28;20057;-59
2023/12/21 09:31:07;;;;;;;72.22;8.80;;;8.10;98.00;;;;;;4983004;28;20042;-59
2023/12/21 09:33:34;;;;;;;110.65;13.55;;;8.20;98.10;;;;;;4999456;28;20121;-59
2023/12/21 09:36:00;;;;;;;87.00;11.82;;;8.20;98.30;;;;;;5001909;28;20030;-59
2023/12/21 09:38:26;;;;;;;114.32;11.32;;;8.20;98.40;;;;;;5013070;28;20030;-59
2023/12/21 09:40:51;;;;;;;73.53;10.38;;;8.20;98.50;;;;;;4999620;28;20044;-58
2023/12/21 09:43:17;;;;;;;91.30;11.68;;;8.20;98.50;;;;;;4994420;28;20033;-58
2023/12/21 09:45:45;;;;;;;75.38;9.73;;;8.30;98.70;;;;;;5004626;28;20046;-59
2023/12/21 09:48:11;;;;;;;74.95;8.98;;;8.30;98.60;;;;;;4986620;28;20031;-58
2023/12/21 09:50:37;;;;;;;82.72;10.35;;;8.30;98.60;;;;;;5011386;28;20032;-58
2023/12/21 09:53:02;;;;;;;61.97;8.20;;;8.30;98.70;;;;;;4990969;28;20033;-58
2023/12/21 09:55:30;;;;;;;66.15;9.35;;;8.30;99.00;;;;;;5006925;28;20045;-58
2023/12/21 09:57:56;;;;;;;55.38;8.40;;;8.30;98.80;;;;;;5002836;28;20031;-58
2023/12/21 10:00:22;;;;;;;59.22;7.88;;;8.30;98.90;;;;;;5007227;28;20430;-59
2023/12/21 10:02:47;;;;;;;70.32;9.35;;;8.30;99.00;;;;;;5000748;28;20076;-58
2023/12/21 10:05:13;;;;;;;79.50;8.70;;;8.30;99.00;;;;;;5001306;28;20159;-59
2023/12/21 10:07:39;;;;;;;74.15;9.07;;;8.30;99.10;;;;;;5001249;28;20041;-58
2023/12/21 10:10:06;;;;;;;65.00;9.57;;;8.30;99.20;;;;;;5004223;28;20120;-59
2023/12/21 10:12:31;;;;;;;54.03;7.45;;;8.30;99.20;;;;;;5002389;28;20106;-59
2023/12/21 10:14:58;;;;;;;66.10;8.45;;;8.30;99.20;;;;;;5008548;28;20050;-59
2023/12/21 10:17:23;;;;;;;67.05;10.02;;;8.30;99.50;;;;;;5018405;28;20041;-59
2023/12/21 10:19:49;;;;;;;72.00;9.88;;;8.30;99.30;;;;;;5014795;28;20026;-58
2023/12/21 10:22:15;;;;;;;77.22;10.05;;;8.30;99.40;;;;;;4986114;28;20042;-59
2023/12/21 10:24:40;;;;;;;45.95;6.68;;;8.40;99.80;;;;;;4984882;28;20364;-58
2023/12/21 10:27:13;;;;;;;60.97;7.35;;;8.40;99.60;;;;;;5001777;28;20226;-58
2023/12/21 10:29:39;;;;;;;67.90;6.70;;;8.40;99.50;;;;;;5000716;28;20052;-58
2023/12/21 10:32:05;;;;;;;55.88;5.78;;;8.40;99.60;;;;;;5004121;28;20118;-58
2023/12/21 10:34:30;;;;;;;60.67;6.70;;;8.40;99.60;;;;;;4985598;28;20034;-58
2023/12/21 10:37:00;;;;;;;67.10;7.07;;;8.40;99.60;;;;;;5001513;28;20042;-59
2023/12/21 10:39:26;;;;;;;45.65;6.70;;;8.40;99.60;;;;;;4998729;28;20026;-58
2023/12/21 10:41:52;;;;;;;56.55;7.13;;;8.40;99.70;;;;;;4997124;28;20026;-58
2023/12/21 10:44:17;;;;;;;49.20;6.47;;;8.40;99.80;;;;;;4998938;28;20038;-58
2023/12/21 10:46:43;;;;;;;35.92;5.70;;;8.40;99.80;;;;;;5014278;28;20029;-58
2023/12/21 10:49:10;;;;;;;41.33;6.18;;;8.40;99.90;;;;;;4999673;28;20633;-58
2023/12/21 10:51:36;;;;;;;32.08;5.22;;;8.50;99.90;;;;;;4991417;28;20042;-58
2023/12/21 10:54:02;;;;;;;39.90;5.50;;;8.40;99.90;;;;;;4995980;28;20072;-58
2023/12/21 10:56:28;;;;;;;41.88;5.05;;;8.50;99.90;;;;;;5001352;28;20030;-59
2023/12/21 10:58:55;;;;;;;35.25;6.05;;;8.50;99.90;;;;;;5008692;28;20049;-59
2023/12/21 11:01:20;;;;;;;41.00;5.15;;;8.50;99.90;;;;;;4998033;28;20029;-58
2023/12/21 11:03:47;;;;;;;56.15;6.43;;;8.50;99.90;;;;;;4996033;28;20019;-58
2023/12/21 11:06:14;;;;;;;46.10;5.70;;;8.50;99.90;;;;;;5002416;28;20106;-59
2023/12/21 11:08:40;;;;;;;49.92;6.75;;;8.50;99.90;;;;;;4989699;28;20030;-58
2023/12/21 11:11:05;;;;;;;65.25;6.78;;;8.50;99.90;;;;;;4986577;28;20022;-58
2023/12/21 11:13:31;;;;;;;80.15;8.40;;;8.60;99.90;;;;;;5005741;28;20042;-58
2023/12/21 11:15:57;;;;;;;227.45;18.08;;;8.60;99.90;;;;;;5001749;28;20026;-58
2023/12/21 11:18:22;;;;;;;121.95;11.65;;;8.60;99.90;;;;;;4996162;28;20387;-58
2023/12/21 11:20:50;;;;;;;64.80;8.27;;;8.70;99.90;;;;;;5007687;28;20030;-59
2023/12/21 11:23:16;;;;;;;82.65;8.70;;;8.70;99.90;;;;;;5015948;28;20035;-59
2023/12/21 11:25:41;;;;;;;57.63;7.00;;;8.70;99.90;;;;;;5010781;28;20041;-59
2023/12/21 11:28:08;;;;;;;69.43;7.15;;;8.70;99.90;;;;;;5006100;28;20046;-59
2023/12/21 11:30:33;;;;;;;82.70;8.88;;;8.70;99.90;;;;;;4998740;28;20110;-59
2023/12/21 11:33:09;;;;;;;93.28;7.85;;;8.80;99.90;;;;;;5017185;28;20051;-59
2023/12/21 11:35:34;;;;;;;99.70;11.77;;;8.80;99.90;;;;;;5036874;28;20023;-59
2023/12/21 11:38:03;;;;;;;115.35;12.07;;;8.80;99.90;;;;;;5000668;28;20037;-59
2023/12/21 11:40:29;;;;;;;148.07;14.20;;;8.80;99.90;;;;;;5035146;28;20030;-59
2023/12/21 11:42:55;;;;;;;118.68;10.98;;;8.90;99.90;;;;;;5014016;28;20134;-59
2023/12/21 11:45:25;;;;;;;122.10;11.55;;;8.80;99.90;;;;;;5011544;28;20053;-59
2023/12/21 11:47:54;;;;;;;82.03;8.85;;;8.90;99.90;;;;;;5000145;28;20050;-59
2023/12/21 11:50:20;;;;;;;77.55;9.15;;;8.90;99.90;;;;;;4970706;28;20026;-59
2023/12/21 11:52:50;;;;;;;101.32;9.40;;;8.90;99.90;;;;;;5000255;28;20034;-59
2023/12/21 11:55:25;;;;;;;95.65;10.95;;;8.90;99.90;;;;;;5001524;28;20387;-59
2023/12/21 11:58:05;;;;;;;;;;;9.00;99.90;;;;;;5007120;28;20038;-59
2023/12/21 12:00:31;;;;;;;76.75;8.90;;;8.90;99.90;;;;;;5015125;28;19914;-59
2023/12/21 12:02:57;;;;;;;97.28;11.35;;;9.00;99.90;;;;;;4970443;28;20027;-59
2023/12/21 12:05:22;;;;;;;126.18;12.70;;;9.00;99.90;;;;;;5000147;28;20097;-59
2023/12/21 12:07:48;;;;;;;133.90;13.68;;;8.90;99.90;;;;;;4994006;28;20116;-59
2023/12/21 12:10:16;;;;;;;83.78;9.77;;;9.00;99.90;;;;;;4998972;28;20026;-58
2023/12/21 12:12:41;;;;;;;91.22;10.18;;;9.00;99.90;;;;;;4997580;28;20035;-58
2023/12/21 12:15:07;;;;;;;137.77;14.73;;;9.10;99.90;;;;;;5006933;28;20052;-58
2023/12/21 12:17:42;;;;;;;124.60;12.18;;;9.10;99.90;;;;;;5004424;28;20212;-59
2023/12/21 12:20:11;;;;;;;134.90;13.77;;;9.10;99.90;;;;;;5007147;28;20050;-59
2023/12/21 12:22:36;;;;;;;121.75;12.35;;;9.10;99.90;;;;;;4980051;28;20066;-59
2023/12/21 12:25:05;;;;;;;94.93;12.07;;;9.10;99.90;;;;;;4995381;28;20049;-59
2023/12/21 12:27:31;;;;;;;115.93;11.70;;;9.10;99.90;;;;;;5007370;28;20082;-59
2023/12/21 12:29:57;;;;;;;126.07;13.50;;;9.10;99.90;;;;;;5008070;28;20081;-59
2023/12/21 12:32:22;;;;;;;75.40;10.35;;;9.10;99.90;;;;;;4989856;28;20026;-59
2023/12/21 12:34:48;;;;;;;83.10;9.13;;;9.20;99.90;;;;;;5009334;28;20056;-59
2023/12/21 12:37:16;;;;;;;62.28;7.82;;;9.10;99.90;;;;;;4999150;28;20046;-59
2023/12/21 12:39:42;;;;;;;81.68;10.07;;;9.10;99.90;;;;;;5014312;28;20058;-59
2023/12/21 12:42:09;;;;;;;70.18;8.70;;;9.10;99.90;;;;;;4995499;28;20026;-59